UKLL/LWO METAR and TAF weather

Enter ICAO airport designator
Station Type Date Time Source
UKLL METAR 2019/08/23 15:30 UTC NOAA

UKLL 231530Z 09004MPS CAVOK 22/14 Q1027 R13/CLRD// NOSIG


Station Type Date Time Source
UKLL Decoded METAR 2019/08/23 15:30 UTC NOAA

Station name not available
Aug 23, 2019 - 11:30 AM EDT / 2019.08.23 1530 UTC
Wind: from the E (090 degrees) at 9 MPH (8 KT):0
Visibility: greater than 7 mile(s):0
Temperature: 71 F (22 C)
Dew Point: 57 F (14 C)
Relative Humidity: 60%
Pressure (altimeter): 30.33 in. Hg (1027 hPa)
ob: UKLL 231530Z 09004MPS CAVOK 22/14 Q1027 R13/CLRD// NOSIG
cycle: 15

Station Type Date Time Source
UKLL TAF 2019/08/23 12:09 UTC NOAA

TAF UKLL 231105Z 2312/2412 09004MPS 9999 BKN033
TEMPO 2312/2412 06005MPS

Example: see airport list